Terminal Aerodrome Forecast
Issued by NWS Twin Cities, MN

Home | Current Version | Previous Version | Text Only | Print | Product List | Glossary Off
Versions: 1 2 3 4 5 6 7 8 9 10 11 12 13 14 15 16 17 18 19 20 21 22 23 24 25 26 27 28 29 30

000
FTUS43 KMPX 250500
TAFMSP
TAF
KMSP 250531Z 2506/2612 30013KT P6SM SCT022
     FM251000 28007KT P6SM FEW050
     FM252000 21004KT P6SM BKN040
     FM260000 15004KT P6SM SCT035 OVC120=

USA.gov is the U.S. government's official web portal to all federal, state and local government web resources and services.